Thunder Bay, Canada
Current Conditions -  °F | °C
As of 8:00 PM on Tuesday 21 Oct 2014 (Local Time) from CYQT Reporting Station
Clear Clear  
Wind Chill: 29°   Ceiling: Unl
Heat Index: 36°   Visibility: 15mi
Dew Point: 32°   Wind: 8mph
Humidity: 87%   Direction: 110°ESE
Pressure: 30.28"   Gusts: NA
Location:  48.38°N, 89.25°W
Report Text: CYQT 220000Z 11007KT 15SM SKC 02/00 A3028 RMK SLP264
Loading
Personal Weather Stations






























Interactive Weather Map
Tropical Storm Tracking
New forecast layout! Learn more

10-Day Weather Forecast

Advertisements
Track Severe Weather on mobile